Terminal Aerodrome Forecast
Issued by NWS

Home | Current Version | Previous Version | Text Only | Print | Product List | Glossary On
Versions: 1 2 3 4 5 6 7 8 9 10 11 12 13 14 15 16 17 18 19 20 21
000
FTUS45 KREV 290500
TAFRNO
TAF
KRNO 290521Z 2906/3006 VRB04KT P6SM SKC
     FM292200 27014G24KT P6SM SCT150 BKN200
     FM300400 27007KT P6SM BKN180=

USA.gov is the U.S. government's official web portal to all federal, state and local government web resources and services.